KTLH/TLH METAR and TAF weather

Enter ICAO airport designator
Station Type Date Time Source
KTLH METAR 2022/08/12 14:53 UTC NOAA

KTLH 121453Z 25003KT 10SM FEW020 SCT070 28/22 A3008 RMK AO2 SLP183 T02830222 50000


Station Type Date Time Source
KTLH Decoded METAR 2022/08/12 14:53 UTC NOAA

TALLAHASSEE REGIONAL AIRPORT , FL, United States (KTLH) 30-24N 84-21W 16M
Aug 12, 2022 - 10:53 AM EDT / 2022.08.12 1453 UTC
Wind: from the WSW (250 degrees) at 3 MPH (3 KT):0
Visibility: 10 mile(s):0
Sky conditions: partly cloudy
Temperature: 82.9 F (28.3 C)
Dew Point: 72.0 F (22.2 C)
Relative Humidity: 69%
Pressure (altimeter): 30.08 in. Hg (1018 hPa)
Pressure tendency: 0.00 inches (0.0 hPa) higher than three hours ago
ob: KTLH 121453Z 25003KT 10SM FEW020 SCT070 28/22 A3008 RMK AO2 SLP183 T02830222 50000
cycle: 15

Station Type Date Time Source
KTLH TAF 2022/08/12 12:22 UTC NOAA

TAF KTLH 121120Z 1212/1312 23007KT P6SM SCT070 BKN100
FM121400 20010G15KT P6SM VCTS SCT035CB BKN045 OVC100
FM122000 22005KT P6SM VCSH SCT030 BKN100

Example: see airport list